Wetterdaten: Woche 22.08.16 - 28.08.16 (KW34)
Datum Zeit Temp. Aussen Temp. o. S. +5cm Feuchte Auss BlattFeu 1 Luftdruck Regen Sonnenschein Regendauer Solar Windben Empfang
22.08.2016 00:00 15,7 C 15,6 C 13,9 C 94 % 2 lf 1021,5 hPa 0,0 l/m 0,00 h 0,00 h 0 W/m 15,7 km/h (3 Bft) 96,76 %
22.08.2016 01:00 15,3 C 15,2 C 13,5 C 92 % 2 lf 1021,8 hPa 0,0 l/m 0,00 h 0,00 h 0 W/m 13,8 km/h (3 Bft) 96,30 %
22.08.2016 02:00 14,9 C 14,5 C 13,0 C 91 % 1 lf 1022,2 hPa 0,0 l/m 0,00 h 0,00 h 0 W/m 12,8 km/h (3 Bft) 96,00 %
22.08.2016 03:00 14,6 C 14,3 C 12,8 C 91 % 1 lf 1022,2 hPa 0,0 l/m 0,00 h 0,00 h 0 W/m 9,2 km/h (2 Bft) 96,16 %
22.08.2016 04:00 14,3 C 14,4 C 12,8 C 91 % 1 lf 1022,2 hPa 0,0 l/m 0,00 h 0,00 h 0 W/m 12,7 km/h (3 Bft) 96,54 %
22.08.2016 05:00 14,5 C 14,5 C 13,3 C 91 % 1 lf 1022,2 hPa 0,0 l/m 0,00 h 0,17 h 0 W/m 13,5 km/h (3 Bft) 96,67 %
22.08.2016 06:00 14,8 C 15,0 C 13,6 C 92 % 1 lf 1022,5 hPa 0,0 l/m 0,00 h 0,00 h 13 W/m 12,8 km/h (3 Bft) 94,57 %
22.08.2016 07:00 15,1 C 15,2 C 13,8 C 92 % 5 lf 1022,7 hPa 0,2 l/m 0,00 h 0,37 h 20 W/m 13,3 km/h (3 Bft) 96,45 %
22.08.2016 08:00 15,2 C 14,4 C 13,5 C 94 % 15 lf 1023,2 hPa 0,6 l/m 0,00 h 0,90 h 40 W/m 12,2 km/h (2 Bft) 97,23 %
22.08.2016 09:00 15,3 C 15,3 C 14,3 C 96 % 15 lf 1023,7 hPa 0,2 l/m 0,00 h 0,20 h 94 W/m 14,3 km/h (3 Bft) 95,46 %
22.08.2016 10:00 15,9 C 16,2 C 15,3 C 97 % 15 lf 1023,8 hPa 0,0 l/m 0,00 h 0,00 h 111 W/m 15,1 km/h (3 Bft) 94,89 %
22.08.2016 11:00 16,6 C 17,0 C 15,9 C 97 % 4 lf 1024,0 hPa 0,0 l/m 0,00 h 0,10 h 124 W/m 17,0 km/h (3 Bft) 97,80 %
22.08.2016 12:00 17,4 C 18,9 C 16,8 C 95 % 1 lf 1024,0 hPa 0,0 l/m 0,00 h 0,13 h 198 W/m 19,2 km/h (3 Bft) 96,23 %
22.08.2016 13:00 18,7 C 20,4 C 18,7 C 90 % 0 lf 1024,2 hPa 0,0 l/m 0,00 h 0,00 h 206 W/m 20,8 km/h (4 Bft) 94,80 %
22.08.2016 14:00 20,1 C 23,2 C 22,0 C 85 % 0 lf 1024,5 hPa 0,0 l/m 0,37 h 0,17 h 351 W/m 16,2 km/h (3 Bft) 96,66 %
22.08.2016 15:00 21,0 C 22,3 C 21,2 C 82 % 0 lf 1024,7 hPa 0,0 l/m 0,00 h 0,00 h 198 W/m 14,4 km/h (3 Bft) 95,80 %
22.08.2016 16:00 21,6 C 24,3 C 22,5 C 81 % 0 lf 1024,7 hPa 0,0 l/m 0,53 h 0,30 h 336 W/m 12,8 km/h (3 Bft) 96,09 %
22.08.2016 17:00 22,9 C 25,7 C 23,3 C 75 % 0 lf 1024,7 hPa 0,0 l/m 0,87 h 0,00 h 345 W/m 16,0 km/h (3 Bft) 96,95 %
22.08.2016 18:00 23,2 C 23,9 C 21,6 C 70 % 0 lf 1024,8 hPa 0,0 l/m 0,57 h 0,00 h 229 W/m 15,3 km/h (3 Bft) 94,66 %
22.08.2016 19:00 22,5 C 22,4 C 19,5 C 72 % 0 lf 1024,7 hPa 0,0 l/m 0,23 h 0,00 h 84 W/m 6,4 km/h (2 Bft) 97,16 %
22.08.2016 20:00 21,5 C 19,9 C 16,8 C 75 % 0 lf 1024,8 hPa 0,0 l/m 0,20 h 0,00 h 17 W/m 3,4 km/h (1 Bft) 96,58 %
22.08.2016 21:00 19,5 C 17,5 C 14,8 C 81 % 1 lf 1025,0 hPa 0,0 l/m 0,00 h 0,00 h 5 W/m 4,6 km/h (1 Bft) 94,66 %
22.08.2016 22:00 17,8 C 16,2 C 13,9 C 86 % 3 lf 1025,2 hPa 0,0 l/m 0,00 h 0,00 h 5 W/m 5,7 km/h (1 Bft) 98,36 %
22.08.2016 23:00 16,6 C 15,5 C 13,3 C 91 % 8 lf 1025,3 hPa 0,0 l/m 0,00 h 0,00 h 5 W/m 6,2 km/h (2 Bft) 96,23 %
23.08.2016 00:00 15,7 C 14,4 C 12,6 C 92 % 14 lf 1025,3 hPa 0,0 l/m 0,00 h 0,00 h 5 W/m 3,3 km/h (1 Bft) 93,80 %
23.08.2016 01:00 14,9 C 13,9 C 12,1 C 92 % 15 lf 1025,4 hPa 0,0 l/m 0,00 h 0,00 h 5 W/m 4,0 km/h (1 Bft) 97,93 %
23.08.2016 02:00 14,4 C 13,6 C 11,8 C 93 % 15 lf 1025,4 hPa 0,0 l/m 0,00 h 0,00 h 5 W/m 2,6 km/h (1 Bft) 96,22 %
23.08.2016 03:00 13,8 C 12,9 C 11,0 C 94 % 15 lf 1025,5 hPa 0,0 l/m 0,00 h 0,00 h 4 W/m 1,1 km/h (0 Bft) 94,02 %
23.08.2016 04:00 13,3 C 12,6 C 10,6 C 94 % 15 lf 1025,6 hPa 0,0 l/m 0,00 h 0,00 h 5 W/m 0,1 km/h (0 Bft) 97,22 %
23.08.2016 05:00 12,9 C 12,2 C 10,2 C 95 % 15 lf 1025,6 hPa 0,0 l/m 0,00 h 0,00 h 5 W/m 0,0 km/h (0 Bft) 96,58 %
23.08.2016 06:00 12,8 C 12,6 C 10,8 C 96 % 15 lf 1025,8 hPa 0,0 l/m 0,10 h 0,00 h 12 W/m 3,8 km/h (1 Bft) 95,66 %
23.08.2016 07:00 13,3 C 13,3 C 11,8 C 97 % 15 lf 1026,2 hPa 0,0 l/m 0,93 h 0,00 h 112 W/m 6,9 km/h (2 Bft) 97,08 %
23.08.2016 08:00 14,6 C 16,0 C 13,3 C 98 % 15 lf 1026,5 hPa 0,0 l/m 1,00 h 0,00 h 266 W/m 8,1 km/h (2 Bft) 95,09 %
23.08.2016 09:00 17,4 C 25,6 C 16,2 C 98 % 5 lf 1026,4 hPa 0,0 l/m 1,00 h 0,00 h 438 W/m 9,1 km/h (2 Bft) 97,65 %
23.08.2016 10:00 21,9 C 31,5 C 27,2 C 82 % 0 lf 1026,2 hPa 0,0 l/m 1,00 h 0,00 h 608 W/m 5,6 km/h (1 Bft) 97,22 %
23.08.2016 11:00 25,3 C 33,7 C 29,9 C 69 % 0 lf 1026,1 hPa 0,0 l/m 1,00 h 0,00 h 824 W/m 9,3 km/h (2 Bft) 94,16 %
23.08.2016 12:00 26,8 C 34,1 C 30,1 C 65 % 0 lf 1025,6 hPa 0,0 l/m 0,83 h 0,00 h 629 W/m 12,4 km/h (3 Bft) 96,45 %
23.08.2016 13:00 28,8 C 37,9 C 28,0 C 58 % 0 lf 1025,2 hPa 0,0 l/m 1,00 h 0,00 h 938 W/m 11,0 km/h (2 Bft) 97,94 %
23.08.2016 14:00 29,6 C 37,7 C 30,8 C 54 % 0 lf 1024,9 hPa 0,0 l/m 1,00 h 0,00 h 815 W/m 11,3 km/h (2 Bft) 95,02 %
23.08.2016 15:00 29,8 C 36,9 C 33,1 C 53 % 0 lf 1024,4 hPa 0,0 l/m 1,00 h 0,00 h 1168 W/m 8,9 km/h (2 Bft) 96,16 %
23.08.2016 16:00 30,0 C 35,8 C 28,9 C 51 % 0 lf 1024,0 hPa 0,0 l/m 1,00 h 0,00 h 581 W/m 8,3 km/h (2 Bft) 97,21 %
23.08.2016 17:00 29,9 C 33,2 C 26,6 C 51 % 0 lf 1023,5 hPa 0,0 l/m 1,00 h 0,00 h 442 W/m 7,1 km/h (2 Bft) 95,57 %
23.08.2016 18:00 29,0 C 29,0 C 25,1 C 52 % 0 lf 1023,3 hPa 0,0 l/m 1,00 h 0,00 h 275 W/m 8,0 km/h (2 Bft) 96,66 %
23.08.2016 19:00 28,1 C 27,8 C 23,7 C 55 % 0 lf 1022,9 hPa 0,0 l/m 0,30 h 0,00 h 71 W/m 10,2 km/h (2 Bft) 95,09 %
23.08.2016 20:00 26,9 C 25,3 C 21,0 C 61 % 0 lf 1023,0 hPa 0,0 l/m 0,17 h 0,00 h 17 W/m 7,0 km/h (2 Bft) 97,51 %
23.08.2016 21:00 24,5 C 22,2 C 18,5 C 68 % 0 lf 1023,0 hPa 0,0 l/m 0,00 h 0,00 h 5 W/m 2,0 km/h (1 Bft) 96,73 %
23.08.2016 22:00 22,1 C 19,9 C 16,9 C 76 % 0 lf 1023,0 hPa 0,0 l/m 0,00 h 0,00 h 5 W/m 0,0 km/h (0 Bft) 93,65 %
23.08.2016 23:00 20,3 C 18,5 C 15,9 C 82 % 1 lf 1022,8 hPa 0,0 l/m 0,00 h 0,00 h 4 W/m 0,0 km/h (0 Bft) 97,86 %
24.08.2016 00:00 19,0 C 17,7 C 15,4 C 85 % 2 lf 1022,6 hPa 0,0 l/m 0,00 h 0,00 h 4 W/m 0,1 km/h (0 Bft) 96,89 %
24.08.2016 01:00 18,2 C 17,5 C 14,8 C 87 % 1 lf 1022,3 hPa 0,0 l/m 0,00 h 0,00 h 5 W/m 2,9 km/h (1 Bft) 96,10 %
24.08.2016 02:00 17,9 C 18,0 C 15,2 C 89 % 1 lf 1022,0 hPa 0,0 l/m 0,00 h 0,00 h 0 W/m 5,7 km/h (1 Bft) 94,90 %
24.08.2016 03:00 17,7 C 16,9 C 14,2 C 89 % 2 lf 1021,8 hPa 0,0 l/m 0,00 h 0,00 h 0 W/m 4,9 km/h (1 Bft) 96,39 %
24.08.2016 04:00 17,1 C 16,3 C 13,7 C 90 % 2 lf 1021,5 hPa 0,0 l/m 0,00 h 0,00 h 0 W/m 2,0 km/h (1 Bft) 96,83 %
24.08.2016 05:00 16,4 C 15,5 C 13,0 C 90 % 3 lf 1021,3 hPa 0,0 l/m 0,00 h 0,00 h 0 W/m 1,8 km/h (1 Bft) 95,64 %
24.08.2016 06:00 15,9 C 16,1 C 13,5 C 92 % 2 lf 1021,2 hPa 0,0 l/m 0,00 h 0,00 h 10 W/m 10,1 km/h (2 Bft) 94,84 %
24.08.2016 07:00 16,4 C 17,3 C 14,8 C 91 % 1 lf 1021,4 hPa 0,0 l/m 0,90 h 0,00 h 93 W/m 10,5 km/h (2 Bft) 97,15 %
24.08.2016 08:00 18,2 C 19,9 C 17,0 C 86 % 0 lf 1021,7 hPa 0,0 l/m 1,00 h 0,00 h 272 W/m 15,3 km/h (3 Bft) 96,95 %
24.08.2016 09:00 21,8 C 29,1 C 20,5 C 75 % 0 lf 1021,6 hPa 0,0 l/m 1,00 h 0,00 h 437 W/m 20,7 km/h (4 Bft) 94,42 %
24.08.2016 10:00 25,2 C 31,7 C 29,5 C 66 % 0 lf 1021,1 hPa 0,0 l/m 1,00 h 0,00 h 583 W/m 18,9 km/h (3 Bft) 97,42 %
24.08.2016 11:00 27,9 C 33,7 C 32,9 C 60 % 0 lf 1021,0 hPa 0,0 l/m 1,00 h 0,00 h 696 W/m 18,6 km/h (3 Bft) 97,02 %
24.08.2016 12:00 29,6 C 34,7 C 32,9 C 55 % 0 lf 1020,6 hPa 0,0 l/m 0,97 h 0,00 h 712 W/m 22,6 km/h (4 Bft) 93,54 %
24.08.2016 13:00 31,3 C 36,9 C 30,8 C 51 % 0 lf 1020,1 hPa 0,0 l/m 1,00 h 0,00 h 794 W/m 20,4 km/h (4 Bft) 96,94 %
24.08.2016 14:00 32,4 C 37,7 C 33,3 C 48 % 0 lf 1019,8 hPa 0,0 l/m 1,00 h 0,00 h 767 W/m 19,3 km/h (3 Bft) 96,44 %
24.08.2016 15:00 32,9 C 37,5 C 35,4 C 46 % 0 lf 1019,4 hPa 0,0 l/m 1,00 h 0,00 h 892 W/m 20,8 km/h (4 Bft) 96,12 %
24.08.2016 16:00 32,8 C 37,3 C 31,5 C 46 % 0 lf 1019,0 hPa 0,0 l/m 1,00 h 0,00 h 586 W/m 21,1 km/h (4 Bft) 98,99 %
24.08.2016 17:00 32,8 C 35,3 C 29,6 C 47 % 0 lf 1018,6 hPa 0,0 l/m 1,00 h 0,00 h 444 W/m 19,4 km/h (3 Bft) 93,38 %
24.08.2016 18:00 31,9 C 31,9 C 28,4 C 49 % 0 lf 1018,3 hPa 0,0 l/m 1,00 h 0,00 h 278 W/m 17,7 km/h (3 Bft) 95,80 %
24.08.2016 19:00 30,9 C 30,3 C 26,6 C 51 % 0 lf 1017,9 hPa 0,0 l/m 0,33 h 0,00 h 161 W/m 14,2 km/h (3 Bft) 97,55 %
24.08.2016 20:00 29,4 C 28,0 C 23,4 C 55 % 0 lf 1018,1 hPa 0,0 l/m 0,00 h 0,00 h 13 W/m 9,9 km/h (2 Bft) 94,39 %
24.08.2016 21:00 27,3 C 25,8 C 21,5 C 59 % 0 lf 1018,2 hPa 0,0 l/m 0,00 h 0,00 h 5 W/m 8,5 km/h (2 Bft) 94,42 %
24.08.2016 22:00 25,4 C 23,9 C 19,8 C 64 % 0 lf 1018,2 hPa 0,0 l/m 0,00 h 0,00 h 5 W/m 6,3 km/h (2 Bft) 97,36 %
24.08.2016 23:00 23,7 C 22,3 C 18,4 C 69 % 0 lf 1018,0 hPa 0,0 l/m 0,00 h 0,00 h 5 W/m 5,0 km/h (1 Bft) 95,81 %
25.08.2016 00:00 22,2 C 21,3 C 17,4 C 74 % 0 lf 1017,5 hPa 0,0 l/m 0,00 h 0,00 h 5 W/m 5,3 km/h (1 Bft) 95,62 %
25.08.2016 01:00 21,4 C 21,1 C 17,9 C 79 % 0 lf 1017,3 hPa 0,0 l/m 0,00 h 0,00 h 5 W/m 7,1 km/h (2 Bft) 96,20 %
25.08.2016 02:00 21,0 C 20,6 C 17,3 C 81 % 0 lf 1017,2 hPa 0,0 l/m 0,00 h 0,00 h 5 W/m 8,1 km/h (2 Bft) 98,87 %
25.08.2016 03:00 20,6 C 20,4 C 17,8 C 82 % 0 lf 1017,3 hPa 0,0 l/m 0,00 h 0,00 h 5 W/m 9,9 km/h (2 Bft) 93,69 %
25.08.2016 04:00 20,2 C 19,8 C 17,3 C 83 % 0 lf 1017,2 hPa 0,0 l/m 0,00 h 0,00 h 2 W/m 9,0 km/h (2 Bft) 96,62 %
25.08.2016 05:00 19,7 C 19,4 C 17,2 C 84 % 0 lf 1016,7 hPa 0,0 l/m 0,00 h 0,00 h 0 W/m 10,7 km/h (2 Bft) 97,36 %
25.08.2016 06:00 19,4 C 19,3 C 16,9 C 84 % 0 lf 1016,6 hPa 0,0 l/m 0,00 h 0,00 h 10 W/m 11,4 km/h (2 Bft) 95,79 %
25.08.2016 07:00 19,5 C 19,8 C 17,6 C 83 % 0 lf 1016,6 hPa 0,0 l/m 0,87 h 0,00 h 90 W/m 14,6 km/h (3 Bft) 94,60 %
25.08.2016 08:00 20,9 C 22,3 C 19,5 C 80 % 0 lf 1016,6 hPa 0,0 l/m 1,00 h 0,00 h 269 W/m 17,5 km/h (3 Bft) 99,36 %
25.08.2016 09:00 24,0 C 29,1 C 22,5 C 70 % 0 lf 1016,4 hPa 0,0 l/m 1,00 h 0,00 h 434 W/m 22,4 km/h (4 Bft) 95,34 %
25.08.2016 10:00 26,4 C 31,2 C 30,3 C 63 % 0 lf 1016,3 hPa 0,0 l/m 1,00 h 0,00 h 579 W/m 26,4 km/h (4 Bft) 96,19 %
25.08.2016 11:00 28,3 C 33,3 C 33,2 C 57 % 0 lf 1015,8 hPa 0,0 l/m 1,00 h 0,00 h 692 W/m 23,1 km/h (4 Bft) 97,72 %
25.08.2016 12:00 30,2 C 35,3 C 33,6 C 52 % 0 lf 1015,2 hPa 0,0 l/m 1,00 h 0,00 h 728 W/m 22,6 km/h (4 Bft) 96,26 %
25.08.2016 13:00 32,1 C 37,8 C 31,8 C 47 % 0 lf 1014,8 hPa 0,0 l/m 1,00 h 0,00 h 793 W/m 20,6 km/h (4 Bft) 96,58 %
25.08.2016 14:00 33,2 C 38,7 C 34,1 C 42 % 0 lf 1014,3 hPa 0,0 l/m 1,00 h 0,00 h 770 W/m 20,5 km/h (4 Bft) 95,09 %
25.08.2016 15:00 33,8 C 38,5 C 36,7 C 39 % 0 lf 1014,1 hPa 0,0 l/m 1,00 h 0,00 h 1174 W/m 19,8 km/h (3 Bft) 96,31 %
25.08.2016 16:00 34,1 C 38,9 C 32,7 C 38 % 0 lf 1013,6 hPa 0,0 l/m 1,00 h 0,00 h 983 W/m 18,2 km/h (3 Bft) 96,45 %
25.08.2016 17:00 34,2 C 36,9 C 30,8 C 39 % 0 lf 1013,3 hPa 0,0 l/m 1,00 h 0,00 h 432 W/m 12,9 km/h (3 Bft) 97,72 %
25.08.2016 18:00 33,5 C 33,6 C 28,9 C 41 % 0 lf 1012,9 hPa 0,0 l/m 1,00 h 0,00 h 262 W/m 11,9 km/h (2 Bft) 94,24 %
25.08.2016 19:00 32,5 C 31,7 C 26,3 C 45 % 0 lf 1012,7 hPa 0,0 l/m 1,00 h 0,00 h 103 W/m 9,2 km/h (2 Bft) 96,96 %
25.08.2016 20:00 30,5 C 28,5 C 23,1 C 49 % 0 lf 1012,8 hPa 0,0 l/m 0,33 h 0,00 h 18 W/m 7,6 km/h (2 Bft) 95,72 %
25.08.2016 21:00 28,1 C 26,8 C 21,7 C 52 % 0 lf 1012,9 hPa 0,0 l/m 0,00 h 0,00 h 5 W/m 7,5 km/h (2 Bft) 97,13 %
25.08.2016 22:00 26,5 C 25,8 C 21,0 C 57 % 0 lf 1013,0 hPa 0,0 l/m 0,00 h 0,00 h 5 W/m 8,1 km/h (2 Bft) 93,93 %
25.08.2016 23:00 25,2 C 24,3 C 21,1 C 63 % 0 lf 1013,0 hPa 0,0 l/m 0,00 h 0,00 h 5 W/m 8,1 km/h (2 Bft) 97,72 %
26.08.2016 00:00 24,1 C 23,4 C 20,9 C 67 % 0 lf 1013,0 hPa 0,0 l/m 0,00 h 0,00 h 5 W/m 8,7 km/h (2 Bft) 97,16 %
26.08.2016 01:00 23,1 C 22,5 C 19,9 C 70 % 0 lf 1013,0 hPa 0,0 l/m 0,00 h 0,00 h 5 W/m 8,0 km/h (2 Bft) 93,78 %
26.08.2016 02:00 22,3 C 21,6 C 19,4 C 73 % 0 lf 1012,9 hPa 0,0 l/m 0,00 h 0,00 h 5 W/m 8,5 km/h (2 Bft) 97,37 %
26.08.2016 03:00 21,2 C 20,5 C 18,2 C 76 % 0 lf 1013,0 hPa 0,0 l/m 0,00 h 0,00 h 5 W/m 7,0 km/h (2 Bft) 98,14 %
26.08.2016 04:00 20,2 C 19,7 C 17,5 C 80 % 0 lf 1013,1 hPa 0,0 l/m 0,00 h 0,00 h 4 W/m 6,9 km/h (2 Bft) 93,59 %
26.08.2016 05:00 19,6 C 19,2 C 17,0 C 83 % 0 lf 1013,1 hPa 0,0 l/m 0,00 h 0,00 h 0 W/m 6,7 km/h (2 Bft) 97,95 %
26.08.2016 06:00 19,0 C 18,6 C 16,3 C 85 % 1 lf 1013,5 hPa 0,0 l/m 0,17 h 0,00 h 13 W/m 5,1 km/h (1 Bft) 96,48 %
26.08.2016 07:00 18,9 C 19,5 C 17,4 C 87 % 0 lf 1013,9 hPa 0,0 l/m 1,00 h 0,00 h 92 W/m 6,9 km/h (2 Bft) 94,94 %
26.08.2016 08:00 20,4 C 22,1 C 19,8 C 84 % 0 lf 1014,1 hPa 0,0 l/m 1,00 h 0,00 h 248 W/m 10,4 km/h (2 Bft) 96,24 %
26.08.2016 09:00 23,7 C 29,5 C 22,9 C 76 % 0 lf 1014,3 hPa 0,0 l/m 1,00 h 0,00 h 401 W/m 10,6 km/h (2 Bft) 96,97 %
26.08.2016 10:00 27,5 C 33,8 C 32,4 C 66 % 0 lf 1014,6 hPa 0,0 l/m 1,00 h 0,00 h 631 W/m 8,5 km/h (2 Bft) 97,05 %
26.08.2016 11:00 30,3 C 39,7 C 35,0 C 61 % 0 lf 1014,9 hPa 0,0 l/m 1,00 h 0,00 h 684 W/m 8,7 km/h (2 Bft) 94,51 %
26.08.2016 12:00 32,0 C 41,3 C 34,6 C 59 % 0 lf 1015,0 hPa 0,0 l/m 0,97 h 0,00 h 669 W/m 9,6 km/h (2 Bft) 96,03 %
26.08.2016 13:00 32,6 C 42,6 C 31,9 C 58 % 0 lf 1015,0 hPa 0,0 l/m 1,00 h 0,00 h 749 W/m 10,1 km/h (2 Bft) 97,93 %
26.08.2016 14:00 32,7 C 42,0 C 32,9 C 58 % 0 lf 1015,2 hPa 0,0 l/m 1,00 h 0,00 h 703 W/m 12,6 km/h (3 Bft) 95,09 %
26.08.2016 15:00 32,6 C 39,5 C 33,8 C 58 % 0 lf 1015,4 hPa 0,0 l/m 1,00 h 0,00 h 563 W/m 15,6 km/h (3 Bft) 97,15 %
26.08.2016 16:00 31,8 C 36,8 C 31,1 C 60 % 0 lf 1015,5 hPa 0,0 l/m 1,00 h 0,00 h 467 W/m 15,0 km/h (3 Bft) 95,03 %
26.08.2016 17:00 31,4 C 34,5 C 30,1 C 59 % 0 lf 1015,6 hPa 0,0 l/m 1,00 h 0,00 h 335 W/m 12,5 km/h (3 Bft) 94,88 %
26.08.2016 18:00 30,7 C 31,3 C 28,6 C 61 % 0 lf 1015,5 hPa 0,0 l/m 0,77 h 0,00 h 197 W/m 11,7 km/h (2 Bft) 97,94 %
26.08.2016 19:00 29,9 C 29,8 C 27,7 C 62 % 0 lf 1015,7 hPa 0,0 l/m 0,53 h 0,00 h 90 W/m 12,2 km/h (2 Bft) 95,09 %
26.08.2016 20:00 28,1 C 26,8 C 25,1 C 68 % 0 lf 1016,2 hPa 0,0 l/m 0,30 h 0,00 h 16 W/m 12,8 km/h (3 Bft) 95,24 %
26.08.2016 21:00 25,8 C 24,8 C 23,3 C 74 % 0 lf 1016,8 hPa 0,0 l/m 0,00 h 0,00 h 5 W/m 14,1 km/h (3 Bft) 98,22 %
26.08.2016 22:00 24,2 C 23,4 C 22,1 C 78 % 0 lf 1017,2 hPa 0,0 l/m 0,00 h 0,00 h 5 W/m 14,0 km/h (3 Bft) 94,84 %
26.08.2016 23:00 23,1 C 22,4 C 21,0 C 82 % 0 lf 1017,5 hPa 0,0 l/m 0,00 h 0,00 h 5 W/m 11,2 km/h (2 Bft) 96,15 %
27.08.2016 00:00 22,2 C 21,3 C 19,9 C 85 % 1 lf 1017,7 hPa 0,0 l/m 0,00 h 0,00 h 0 W/m 9,4 km/h (2 Bft) 97,20 %
27.08.2016 01:00 21,3 C 20,6 C 19,2 C 86 % 1 lf 1017,9 hPa 0,0 l/m 0,00 h 0,00 h 0 W/m 9,3 km/h (2 Bft) 96,44 %
27.08.2016 02:00 20,7 C 20,0 C 18,8 C 88 % 1 lf 1017,8 hPa 0,0 l/m 0,00 h 0,00 h 0 W/m 9,4 km/h (2 Bft) 94,78 %
27.08.2016 03:00 20,1 C 19,4 C 18,2 C 87 % 1 lf 1017,7 hPa 0,0 l/m 0,00 h 0,00 h 5 W/m 8,0 km/h (2 Bft) 96,74 %
27.08.2016 04:00 19,6 C 18,9 C 17,6 C 85 % 1 lf 1017,8 hPa 0,0 l/m 0,00 h 0,00 h 5 W/m 8,3 km/h (2 Bft) 97,88 %
27.08.2016 05:00 19,0 C 18,3 C 17,1 C 86 % 1 lf 1017,7 hPa 0,0 l/m 0,00 h 0,00 h 5 W/m 7,6 km/h (2 Bft) 95,80 %
27.08.2016 06:00 18,6 C 18,0 C 16,7 C 88 % 1 lf 1017,5 hPa 0,0 l/m 0,07 h 0,00 h 9 W/m 7,8 km/h (2 Bft) 95,51 %
27.08.2016 07:00 18,5 C 18,7 C 17,3 C 91 % 1 lf 1017,6 hPa 0,0 l/m 1,00 h 0,00 h 67 W/m 8,2 km/h (2 Bft) 98,08 %
27.08.2016 08:00 19,4 C 21,6 C 19,2 C 90 % 0 lf 1017,7 hPa 0,0 l/m 1,00 h 0,00 h 214 W/m 13,2 km/h (3 Bft) 97,01 %
27.08.2016 09:00 22,1 C 28,9 C 21,9 C 80 % 0 lf 1017,8 hPa 0,0 l/m 1,00 h 0,00 h 378 W/m 17,1 km/h (3 Bft) 94,01 %
27.08.2016 10:00 24,7 C 31,9 C 28,2 C 73 % 0 lf 1017,7 hPa 0,0 l/m 1,00 h 0,00 h 534 W/m 15,3 km/h (3 Bft) 98,29 %
27.08.2016 11:00 26,4 C 35,3 C 30,2 C 69 % 0 lf 1017,4 hPa 0,0 l/m 1,00 h 0,00 h 735 W/m 14,1 km/h (3 Bft) 97,22 %
27.08.2016 12:00 28,4 C 36,9 C 31,0 C 65 % 0 lf 1016,9 hPa 0,0 l/m 0,90 h 0,00 h 672 W/m 13,9 km/h (3 Bft) 93,37 %
27.08.2016 13:00 30,4 C 37,9 C 30,0 C 61 % 0 lf 1016,2 hPa 0,0 l/m 1,00 h 0,00 h 735 W/m 17,0 km/h (3 Bft) 98,08 %
27.08.2016 14:00 31,5 C 37,7 C 31,0 C 59 % 0 lf 1015,6 hPa 0,0 l/m 1,00 h 0,00 h 884 W/m 18,3 km/h (3 Bft) 96,58 %
27.08.2016 15:00 32,6 C 39,2 C 33,6 C 59 % 0 lf 1014,9 hPa 0,0 l/m 1,00 h 0,00 h 972 W/m 16,6 km/h (3 Bft) 96,37 %
27.08.2016 16:00 33,7 C 40,0 C 32,5 C 57 % 0 lf 1014,2 hPa 0,0 l/m 1,00 h 0,00 h 862 W/m 15,7 km/h (3 Bft) 97,36 %
27.08.2016 17:00 34,2 C 37,4 C 32,0 C 56 % 0 lf 1013,6 hPa 0,0 l/m 0,90 h 0,00 h 403 W/m 16,0 km/h (3 Bft) 94,51 %
27.08.2016 18:00 33,4 C 31,5 C 29,7 C 58 % 0 lf 1013,1 hPa 0,2 l/m 0,73 h 0,17 h 221 W/m 11,6 km/h (2 Bft) 96,98 %
27.08.2016 19:00 31,1 C 30,2 C 26,2 C 59 % 0 lf 1012,6 hPa 0,0 l/m 0,43 h 0,00 h 72 W/m 9,7 km/h (2 Bft) 95,73 %
27.08.2016 20:00 29,8 C 29,1 C 26,3 C 65 % 0 lf 1012,7 hPa 0,0 l/m 0,33 h 0,00 h 18 W/m 17,5 km/h (3 Bft) 97,15 %
27.08.2016 21:00 28,3 C 27,0 C 24,3 C 71 % 0 lf 1012,6 hPa 0,0 l/m 0,00 h 0,00 h 0 W/m 11,9 km/h (2 Bft) 96,15 %
27.08.2016 22:00 26,7 C 25,4 C 22,3 C 76 % 0 lf 1011,8 hPa 0,0 l/m 0,00 h 0,00 h 0 W/m 7,9 km/h (2 Bft) 96,00 %
27.08.2016 23:00 25,6 C 25,0 C 23,0 C 79 % 1 lf 1012,1 hPa 1,2 l/m 0,00 h 0,07 h 0 W/m 19,8 km/h (3 Bft) 96,24 %
28.08.2016 00:00 21,9 C 19,0 C 17,9 C 85 % 15 lf 1013,3 hPa 9,0 l/m 0,00 h 0,92 h 5 W/m 25,2 km/h (4 Bft) 96,71 %
28.08.2016 01:00 21,4 C 19,5 C 18,1 C 83 % 8 lf 1012,2 hPa 0,0 l/m 0,00 h 0,53 h 4 W/m 13,2 km/h (3 Bft) 95,54 %
28.08.2016 02:00 21,2 C 19,5 C 17,8 C 86 % 2 lf 1011,5 hPa 0,2 l/m 0,00 h 0,00 h 0 W/m 7,4 km/h (2 Bft) 97,65 %
28.08.2016 03:00 20,8 C 21,1 C 17,1 C 83 % 1 lf 1011,9 hPa 0,0 l/m 0,00 h 0,00 h 0 W/m 7,4 km/h (2 Bft) 94,29 %
28.08.2016 04:00 20,6 C 20,2 C 16,7 C 83 % 1 lf 1011,6 hPa 0,0 l/m 0,00 h 0,00 h 0 W/m 6,8 km/h (2 Bft) 98,26 %
28.08.2016 05:00 20,3 C 20,0 C 16,7 C 85 % 1 lf 1011,4 hPa 0,0 l/m 0,00 h 0,00 h 0 W/m 5,5 km/h (1 Bft) 98,09 %
28.08.2016 06:00 19,8 C 18,8 C 16,3 C 88 % 3 lf 1011,3 hPa 0,0 l/m 0,00 h 0,00 h 9 W/m 3,2 km/h (1 Bft) 94,47 %
28.08.2016 07:00 19,2 C 19,4 C 16,8 C 90 % 3 lf 1011,3 hPa 0,0 l/m 0,60 h 0,00 h 65 W/m 3,6 km/h (1 Bft) 95,47 %
28.08.2016 08:00 20,2 C 22,4 C 18,9 C 90 % 1 lf 1011,1 hPa 0,0 l/m 1,00 h 0,00 h 229 W/m 10,8 km/h (2 Bft) 98,93 %
28.08.2016 09:00 24,0 C 30,6 C 22,5 C 81 % 0 lf 1010,9 hPa 0,0 l/m 1,00 h 0,00 h 395 W/m 11,9 km/h (2 Bft) 94,37 %
28.08.2016 10:00 28,0 C 34,8 C 31,3 C 70 % 0 lf 1010,7 hPa 0,0 l/m 1,00 h 0,00 h 542 W/m 13,3 km/h (3 Bft) 95,93 %
28.08.2016 11:00 30,7 C 38,8 C 33,3 C 60 % 0 lf 1010,8 hPa 0,0 l/m 1,00 h 0,00 h 646 W/m 22,4 km/h (4 Bft) 96,30 %
28.08.2016 12:00 30,4 C 36,4 C 31,4 C 59 % 0 lf 1011,2 hPa 0,0 l/m 0,90 h 0,00 h 684 W/m 30,1 km/h (5 Bft) 98,00 %
28.08.2016 13:00 29,1 C 32,6 C 28,8 C 65 % 0 lf 1011,8 hPa 0,0 l/m 0,67 h 0,00 h 474 W/m 27,5 km/h (4 Bft) 94,02 %
28.08.2016 14:00 28,6 C 34,2 C 29,2 C 66 % 0 lf 1012,2 hPa 0,0 l/m 0,77 h 0,00 h 629 W/m 26,9 km/h (4 Bft) 96,37 %
28.08.2016 15:00 28,5 C 33,1 C 29,6 C 64 % 0 lf 1012,2 hPa 0,0 l/m 0,73 h 0,00 h 537 W/m 22,9 km/h (4 Bft) 97,65 %
28.08.2016 16:00 27,8 C 32,2 C 27,7 C 62 % 0 lf 1012,5 hPa 0,0 l/m 0,87 h 0,00 h 482 W/m 24,7 km/h (4 Bft) 95,50 %
28.08.2016 17:00 26,9 C 29,4 C 25,3 C 61 % 0 lf 1012,9 hPa 0,0 l/m 0,90 h 0,00 h 381 W/m 24,3 km/h (4 Bft) 95,07 %
28.08.2016 18:00 25,6 C 25,9 C 23,2 C 61 % 0 lf 1013,4 hPa 0,0 l/m 0,83 h 0,00 h 234 W/m 22,2 km/h (4 Bft) 99,11 %
28.08.2016 19:00 24,3 C 24,2 C 22,2 C 63 % 0 lf 1013,8 hPa 0,0 l/m 0,80 h 0,00 h 95 W/m 18,9 km/h (3 Bft) 94,70 %
28.08.2016 20:00 22,9 C 21,7 C 19,6 C 65 % 0 lf 1014,1 hPa 0,0 l/m 0,27 h 0,00 h 15 W/m 10,7 km/h (2 Bft) 96,11 %
28.08.2016 21:00 21,5 C 20,1 C 17,9 C 69 % 0 lf 1014,7 hPa 0,0 l/m 0,00 h 0,00 h 0 W/m 7,8 km/h (2 Bft) 97,13 %
28.08.2016 22:00 20,3 C 19,2 C 17,3 C 72 % 0 lf 1015,1 hPa 0,0 l/m 0,00 h 0,00 h 0 W/m 11,0 km/h (2 Bft) 95,81 %
28.08.2016 23:00 19,6 C 18,5 C 16,5 C 75 % 0 lf 1015,3 hPa 0,0 l/m 0,00 h 0,00 h 0 W/m 5,8 km/h (2 Bft) 95,92 %
Min-Datum _ 23.08.16 23.08.16 23.08.16 25.08.16 22.08.16 28.08.16 - - - - 22.08.16 23.08.16
_ Min-Zeit 06:24 03:58 05:14 16:04 12:50 10:22 - - - - 20:32 22:18
Minimum _ 12,7 C 12,2 C 10,0 C 36 % 0 lf 1010,6 hPa - - - - 0,0 km/h (0 Bft) 81,82 %
Max-Datum _ 25.08.16 26.08.16 25.08.16 23.08.16 22.08.16 23.08.16 28.08.16 22.08.16 22.08.16 23.08.16 27.08.16 22.08.16
_ Max-Zeit 17:00 13:06 15:04 09:02 07:56 07:48 00:00 14:12 05:44 13:08 23:50 00:00
Maximum _ 34,4 C 43,9 C 42,2 C 99 % 15 lf 1026,5 hPa 9,0 l/m 0,03 h 0,03 h 1416 W/m 62,8 km/h
S-SO (8 Bft)
100,00 %
Durchschnitt _ 23,7 C 25,5 C 22,1 C 73 % 2 lf 1018,1 hPa #11,6 l/m #76:56 h #4:05 h 293 W/m 11,8 km/h (2 Bft) 96,23 %
© 2016 W. Hausmann